sensor_id;sensor_type;location;lat;lon;timestamp;temperature;humidity
13462;DHT22;6803;45.264;5.468;2022-11-04T00:00:47;10.40;99.90
13462;DHT22;6803;45.264;5.468;2022-11-04T00:03:18;10.40;99.90
13462;DHT22;6803;45.264;5.468;2022-11-04T00:05:48;10.30;99.90
13462;DHT22;6803;45.264;5.468;2022-11-04T00:08:19;10.30;99.90
13462;DHT22;6803;45.264;5.468;2022-11-04T00:10:55;10.30;99.90
13462;DHT22;6803;45.264;5.468;2022-11-04T00:13:44;10.20;99.90
13462;DHT22;6803;45.264;5.468;2022-11-04T00:16:15;10.10;99.90
13462;DHT22;6803;45.264;5.468;2022-11-04T00:19:03;10.10;99.90
13462;DHT22;6803;45.264;5.468;2022-11-04T00:21:34;10.00;99.90
13462;DHT22;6803;45.264;5.468;2022-11-04T00:24:22;10.00;99.90
13462;DHT22;6803;45.264;5.468;2022-11-04T00:27:11;10.00;99.90
13462;DHT22;6803;45.264;5.468;2022-11-04T00:30:00;10.00;99.90
13462;DHT22;6803;45.264;5.468;2022-11-04T00:32:31;9.90;99.90
13462;DHT22;6803;45.264;5.468;2022-11-04T00:35:20;9.90;99.90
13462;DHT22;6803;45.264;5.468;2022-11-04T00:37:51;9.90;99.90
13462;DHT22;6803;45.264;5.468;2022-11-04T00:40:40;9.80;99.90
13462;DHT22;6803;45.264;5.468;2022-11-04T00:43:11;9.60;99.90
13462;DHT22;6803;45.264;5.468;2022-11-04T00:45:42;9.60;99.90
13462;DHT22;6803;45.264;5.468;2022-11-04T00:48:12;9.60;99.90
13462;DHT22;6803;45.264;5.468;2022-11-04T00:50:43;9.60;99.90
13462;DHT22;6803;45.264;5.468;2022-11-04T00:53:14;9.60;99.90
13462;DHT22;6803;45.264;5.468;2022-11-04T00:55:44;9.50;99.90
13462;DHT22;6803;45.264;5.468;2022-11-04T00:58:15;9.40;99.90
13462;DHT22;6803;45.264;5.468;2022-11-04T01:00:45;9.40;99.90
13462;DHT22;6803;45.264;5.468;2022-11-04T01:03:16;9.30;99.90
13462;DHT22;6803;45.264;5.468;2022-11-04T01:05:47;9.10;99.90
13462;DHT22;6803;45.264;5.468;2022-11-04T01:08:17;9.10;99.90
13462;DHT22;6803;45.264;5.468;2022-11-04T01:10:48;9.20;99.90
13462;DHT22;6803;45.264;5.468;2022-11-04T01:13:18;8.90;99.90
13462;DHT22;6803;45.264;5.468;2022-11-04T01:15:49;8.90;99.90
13462;DHT22;6803;45.264;5.468;2022-11-04T01:18:19;9.00;99.90
13462;DHT22;6803;45.264;5.468;2022-11-04T01:20:50;9.00;99.90
13462;DHT22;6803;45.264;5.468;2022-11-04T01:23:21;9.10;99.90
13462;DHT22;6803;45.264;5.468;2022-11-04T01:25:51;9.00;99.90
13462;DHT22;6803;45.264;5.468;2022-11-04T01:28:22;8.80;99.90
13462;DHT22;6803;45.264;5.468;2022-11-04T01:30:53;8.80;99.90
13462;DHT22;6803;45.264;5.468;2022-11-04T01:33:23;8.70;99.90
13462;DHT22;6803;45.264;5.468;2022-11-04T01:35:57;9.20;99.90
13462;DHT22;6803;45.264;5.468;2022-11-04T01:38:26;9.10;99.90
13462;DHT22;6803;45.264;5.468;2022-11-04T01:40:57;9.00;99.90
13462;DHT22;6803;45.264;5.468;2022-11-04T01:43:44;8.70;99.90
13462;DHT22;6803;45.264;5.468;2022-11-04T01:46:21;8.50;99.90
13462;DHT22;6803;45.264;5.468;2022-11-04T01:48:53;8.60;99.90
13462;DHT22;6803;45.264;5.468;2022-11-04T01:51:25;8.50;99.90
13462;DHT22;6803;45.264;5.468;2022-11-04T01:53:56;8.60;99.90
13462;DHT22;6803;45.264;5.468;2022-11-04T01:56:28;8.80;99.90
13462;DHT22;6803;45.264;5.468;2022-11-04T01:59:02;8.70;99.90
13462;DHT22;6803;45.264;5.468;2022-11-04T02:01:33;8.60;99.90
13462;DHT22;6803;45.264;5.468;2022-11-04T02:04:04;8.40;99.90
13462;DHT22;6803;45.264;5.468;2022-11-04T02:06:57;8.20;99.90
13462;DHT22;6803;45.264;5.468;2022-11-04T02:09:29;8.00;99.90
13462;DHT22;6803;45.264;5.468;2022-11-04T02:12:01;8.10;99.90
13462;DHT22;6803;45.264;5.468;2022-11-04T02:14:53;8.40;99.90
13462;DHT22;6803;45.264;5.468;2022-11-04T02:17:32;8.40;99.90
13462;DHT22;6803;45.264;5.468;2022-11-04T02:23:30;8.20;99.90
13462;DHT22;6803;45.264;5.468;2022-11-04T02:32:15;8.00;99.90
13462;DHT22;6803;45.264;5.468;2022-11-04T02:34:54;7.80;99.90
13462;DHT22;6803;45.264;5.468;2022-11-04T02:37:30;7.80;99.90
13462;DHT22;6803;45.264;5.468;2022-11-04T02:40:05;7.90;99.90
13462;DHT22;6803;45.264;5.468;2022-11-04T02:42:40;8.10;99.90
13462;DHT22;6803;45.264;5.468;2022-11-04T02:45:15;8.40;99.90
13462;DHT22;6803;45.264;5.468;2022-11-04T02:47:49;8.30;99.90
13462;DHT22;6803;45.264;5.468;2022-11-04T02:50:24;8.40;99.90
13462;DHT22;6803;45.264;5.468;2022-11-04T02:52:58;8.50;99.90
13462;DHT22;6803;45.264;5.468;2022-11-04T02:55:32;8.50;99.90
13462;DHT22;6803;45.264;5.468;2022-11-04T02:58:05;8.10;99.90
13462;DHT22;6803;45.264;5.468;2022-11-04T03:00:39;7.80;99.90
13462;DHT22;6803;45.264;5.468;2022-11-04T03:03:14;7.90;99.90
13462;DHT22;6803;45.264;5.468;2022-11-04T03:05:47;7.80;99.90
13462;DHT22;6803;45.264;5.468;2022-11-04T03:08:21;8.00;99.90
13462;DHT22;6803;45.264;5.468;2022-11-04T03:10:55;7.90;99.90
13462;DHT22;6803;45.264;5.468;2022-11-04T03:13:30;7.60;99.90
13462;DHT22;6803;45.264;5.468;2022-11-04T03:16:02;7.50;99.90
13462;DHT22;6803;45.264;5.468;2022-11-04T03:18:37;7.50;99.90
13462;DHT22;6803;45.264;5.468;2022-11-04T03:21:10;7.40;99.90
13462;DHT22;6803;45.264;5.468;2022-11-04T03:23:41;7.30;99.90
13462;DHT22;6803;45.264;5.468;2022-11-04T03:26:17;7.70;99.90
13462;DHT22;6803;45.264;5.468;2022-11-04T03:28:49;8.00;99.90
13462;DHT22;6803;45.264;5.468;2022-11-04T03:31:24;7.70;99.90
13462;DHT22;6803;45.264;5.468;2022-11-04T03:33:56;7.30;99.90
13462;DHT22;6803;45.264;5.468;2022-11-04T03:36:27;7.10;99.90
13462;DHT22;6803;45.264;5.468;2022-11-04T03:38:58;7.20;99.90
13462;DHT22;6803;45.264;5.468;2022-11-04T03:41:30;7.30;99.90
13462;DHT22;6803;45.264;5.468;2022-11-04T03:44:02;7.40;99.90
13462;DHT22;6803;45.264;5.468;2022-11-04T03:46:34;7.50;99.90
13462;DHT22;6803;45.264;5.468;2022-11-04T03:49:05;7.60;99.90
13462;DHT22;6803;45.264;5.468;2022-11-04T03:51:36;7.40;99.90
13462;DHT22;6803;45.264;5.468;2022-11-04T03:54:07;7.20;99.90
13462;DHT22;6803;45.264;5.468;2022-11-04T04:00:10;7.20;99.90
13462;DHT22;6803;45.264;5.468;2022-11-04T04:02:54;7.10;99.90
13462;DHT22;6803;45.264;5.468;2022-11-04T04:05:28;7.10;99.90
13462;DHT22;6803;45.264;5.468;2022-11-04T04:08:12;7.20;99.90
13462;DHT22;6803;45.264;5.468;2022-11-04T04:10:48;7.10;99.90
13462;DHT22;6803;45.264;5.468;2022-11-04T04:13:32;6.80;99.90
13462;DHT22;6803;45.264;5.468;2022-11-04T04:16:01;6.80;99.90
13462;DHT22;6803;45.264;5.468;2022-11-04T04:18:35;6.80;99.90
13462;DHT22;6803;45.264;5.468;2022-11-04T04:21:09;6.70;99.90
13462;DHT22;6803;45.264;5.468;2022-11-04T04:23:42;6.80;99.90
13462;DHT22;6803;45.264;5.468;2022-11-04T04:26:32;6.90;99.90
13462;DHT22;6803;45.264;5.468;2022-11-04T04:29:22;7.00;99.90
13462;DHT22;6803;45.264;5.468;2022-11-04T04:31:55;6.90;99.90
13462;DHT22;6803;45.264;5.468;2022-11-04T04:34:28;6.80;99.90
13462;DHT22;6803;45.264;5.468;2022-11-04T04:37:02;6.60;99.90
13462;DHT22;6803;45.264;5.468;2022-11-04T04:39:37;6.50;99.90
13462;DHT22;6803;45.264;5.468;2022-11-04T04:42:25;6.70;99.90
13462;DHT22;6803;45.264;5.468;2022-11-04T04:45:20;6.80;99.90
13462;DHT22;6803;45.264;5.468;2022-11-04T04:47:51;6.90;99.90
13462;DHT22;6803;45.264;5.468;2022-11-04T04:50:24;7.00;99.90
13462;DHT22;6803;45.264;5.468;2022-11-04T04:52:57;7.00;99.90
13462;DHT22;6803;45.264;5.468;2022-11-04T04:55:28;6.70;99.90
13462;DHT22;6803;45.264;5.468;2022-11-04T04:58:01;6.40;99.90
13462;DHT22;6803;45.264;5.468;2022-11-04T05:00:32;6.20;99.90
13462;DHT22;6803;45.264;5.468;2022-11-04T05:03:23;6.20;99.90
13462;DHT22;6803;45.264;5.468;2022-11-04T05:05:54;6.30;99.90
13462;DHT22;6803;45.264;5.468;2022-11-04T05:08:27;6.60;99.90
13462;DHT22;6803;45.264;5.468;2022-11-04T05:10:58;6.60;99.90
13462;DHT22;6803;45.264;5.468;2022-11-04T05:13:29;6.50;99.90
13462;DHT22;6803;45.264;5.468;2022-11-04T05:16:05;6.40;99.90
13462;DHT22;6803;45.264;5.468;2022-11-04T05:18:36;6.40;99.90
13462;DHT22;6803;45.264;5.468;2022-11-04T05:21:09;6.40;99.90
13462;DHT22;6803;45.264;5.468;2022-11-04T05:23:40;6.50;99.90
13462;DHT22;6803;45.264;5.468;2022-11-04T05:26:11;6.60;99.90
13462;DHT22;6803;45.264;5.468;2022-11-04T05:28:42;6.70;99.90
13462;DHT22;6803;45.264;5.468;2022-11-04T05:31:12;6.80;99.90
13462;DHT22;6803;45.264;5.468;2022-11-04T05:33:43;7.00;99.90
13462;DHT22;6803;45.264;5.468;2022-11-04T05:36:15;7.20;99.90
13462;DHT22;6803;45.264;5.468;2022-11-04T05:38:49;7.40;99.90
13462;DHT22;6803;45.264;5.468;2022-11-04T05:41:20;7.60;99.90
13462;DHT22;6803;45.264;5.468;2022-11-04T05:43:55;7.60;99.90
13462;DHT22;6803;45.264;5.468;2022-11-04T05:46:26;7.50;99.90
13462;DHT22;6803;45.264;5.468;2022-11-04T05:48:57;7.50;99.90
13462;DHT22;6803;45.264;5.468;2022-11-04T05:51:29;7.50;99.90
13462;DHT22;6803;45.264;5.468;2022-11-04T05:54:00;7.60;99.90
13462;DHT22;6803;45.264;5.468;2022-11-04T05:56:30;7.60;99.90
13462;DHT22;6803;45.264;5.468;2022-11-04T05:59:01;7.70;99.90
13462;DHT22;6803;45.264;5.468;2022-11-04T06:01:34;7.60;99.90
13462;DHT22;6803;45.264;5.468;2022-11-04T06:04:12;7.40;99.90
13462;DHT22;6803;45.264;5.468;2022-11-04T06:06:38;7.30;99.90
13462;DHT22;6803;45.264;5.468;2022-11-04T06:09:09;7.30;99.90
13462;DHT22;6803;45.264;5.468;2022-11-04T06:11:39;7.30;99.90
13462;DHT22;6803;45.264;5.468;2022-11-04T06:14:10;7.30;99.90
13462;DHT22;6803;45.264;5.468;2022-11-04T06:16:42;7.30;99.90
13462;DHT22;6803;45.264;5.468;2022-11-04T06:19:13;7.20;99.90
13462;DHT22;6803;45.264;5.468;2022-11-04T06:21:44;7.20;99.90
13462;DHT22;6803;45.264;5.468;2022-11-04T06:24:15;7.20;99.90
13462;DHT22;6803;45.264;5.468;2022-11-04T06:26:45;7.30;99.90
13462;DHT22;6803;45.264;5.468;2022-11-04T06:29:16;7.30;99.90
13462;DHT22;6803;45.264;5.468;2022-11-04T06:31:46;7.30;99.90
13462;DHT22;6803;45.264;5.468;2022-11-04T06:34:17;7.40;99.90
13462;DHT22;6803;45.264;5.468;2022-11-04T06:36:49;7.50;99.90
13462;DHT22;6803;45.264;5.468;2022-11-04T06:39:20;7.50;99.90
13462;DHT22;6803;45.264;5.468;2022-11-04T06:41:50;7.50;99.90
13462;DHT22;6803;45.264;5.468;2022-11-04T06:44:23;7.50;99.90
13462;DHT22;6803;45.264;5.468;2022-11-04T06:46:53;7.50;99.90
13462;DHT22;6803;45.264;5.468;2022-11-04T06:49:24;7.50;99.90
13462;DHT22;6803;45.264;5.468;2022-11-04T06:51:55;7.50;99.90
13462;DHT22;6803;45.264;5.468;2022-11-04T06:54:25;7.60;99.90
13462;DHT22;6803;45.264;5.468;2022-11-04T06:56:56;7.60;99.90
13462;DHT22;6803;45.264;5.468;2022-11-04T06:59:26;7.60;99.90
13462;DHT22;6803;45.264;5.468;2022-11-04T07:01:57;7.70;99.90
13462;DHT22;6803;45.264;5.468;2022-11-04T07:04:28;7.80;99.90
13462;DHT22;6803;45.264;5.468;2022-11-04T07:06:59;7.80;99.90
13462;DHT22;6803;45.264;5.468;2022-11-04T07:09:32;7.90;99.90
13462;DHT22;6803;45.264;5.468;2022-11-04T07:12:04;8.00;99.90
13462;DHT22;6803;45.264;5.468;2022-11-04T07:14:35;8.00;99.90
13462;DHT22;6803;45.264;5.468;2022-11-04T07:17:06;7.90;99.90
13462;DHT22;6803;45.264;5.468;2022-11-04T07:19:36;8.00;99.90
13462;DHT22;6803;45.264;5.468;2022-11-04T07:22:07;8.00;99.90
13462;DHT22;6803;45.264;5.468;2022-11-04T07:24:38;8.00;99.90
13462;DHT22;6803;45.264;5.468;2022-11-04T07:27:09;8.00;99.90
13462;DHT22;6803;45.264;5.468;2022-11-04T07:29:39;8.00;99.90
13462;DHT22;6803;45.264;5.468;2022-11-04T07:32:10;8.10;99.90
13462;DHT22;6803;45.264;5.468;2022-11-04T07:34:41;8.10;99.90
13462;DHT22;6803;45.264;5.468;2022-11-04T07:37:11;8.10;99.90
13462;DHT22;6803;45.264;5.468;2022-11-04T07:39:42;8.20;99.90
13462;DHT22;6803;45.264;5.468;2022-11-04T07:42:13;8.30;99.90
13462;DHT22;6803;45.264;5.468;2022-11-04T07:44:43;8.30;99.90
13462;DHT22;6803;45.264;5.468;2022-11-04T07:47:14;8.40;99.90
13462;DHT22;6803;45.264;5.468;2022-11-04T07:49:44;8.40;99.90
13462;DHT22;6803;45.264;5.468;2022-11-04T07:52:16;8.40;99.90
13462;DHT22;6803;45.264;5.468;2022-11-04T07:54:46;8.40;99.90
13462;DHT22;6803;45.264;5.468;2022-11-04T07:57:17;8.60;99.90
13462;DHT22;6803;45.264;5.468;2022-11-04T07:59:48;8.70;99.90
13462;DHT22;6803;45.264;5.468;2022-11-04T08:02:18;8.80;99.90
13462;DHT22;6803;45.264;5.468;2022-11-04T08:04:52;8.80;99.90
13462;DHT22;6803;45.264;5.468;2022-11-04T08:07:22;8.90;99.90
13462;DHT22;6803;45.264;5.468;2022-11-04T08:09:53;8.90;99.90
13462;DHT22;6803;45.264;5.468;2022-11-04T08:12:24;8.90;99.90
13462;DHT22;6803;45.264;5.468;2022-11-04T08:14:56;8.80;99.90
13462;DHT22;6803;45.264;5.468;2022-11-04T08:17:26;8.90;99.90
13462;DHT22;6803;45.264;5.468;2022-11-04T08:19:57;8.90;99.90
13462;DHT22;6803;45.264;5.468;2022-11-04T08:22:28;9.00;99.90
13462;DHT22;6803;45.264;5.468;2022-11-04T08:25:00;9.00;99.90
13462;DHT22;6803;45.264;5.468;2022-11-04T08:27:31;9.00;99.90
13462;DHT22;6803;45.264;5.468;2022-11-04T08:30:02;9.00;99.90
13462;DHT22;6803;45.264;5.468;2022-11-04T08:32:33;9.10;99.90
13462;DHT22;6803;45.264;5.468;2022-11-04T08:35:05;9.00;99.90
13462;DHT22;6803;45.264;5.468;2022-11-04T08:37:36;9.20;99.90
13462;DHT22;6803;45.264;5.468;2022-11-04T08:40:09;9.30;99.90
13462;DHT22;6803;45.264;5.468;2022-11-04T08:42:40;9.50;99.90
13462;DHT22;6803;45.264;5.468;2022-11-04T08:45:11;9.50;99.90
13462;DHT22;6803;45.264;5.468;2022-11-04T08:47:42;9.30;99.90
13462;DHT22;6803;45.264;5.468;2022-11-04T08:50:13;9.40;99.90
13462;DHT22;6803;45.264;5.468;2022-11-04T08:52:44;9.40;99.90
13462;DHT22;6803;45.264;5.468;2022-11-04T08:55:15;9.40;99.90
13462;DHT22;6803;45.264;5.468;2022-11-04T08:57:46;9.50;99.90
13462;DHT22;6803;45.264;5.468;2022-11-04T09:00:17;9.40;99.90
13462;DHT22;6803;45.264;5.468;2022-11-04T09:02:49;9.40;99.90
13462;DHT22;6803;45.264;5.468;2022-11-04T09:05:19;9.50;99.90
13462;DHT22;6803;45.264;5.468;2022-11-04T09:07:50;9.50;99.90
13462;DHT22;6803;45.264;5.468;2022-11-04T09:10:21;9.60;99.90
13462;DHT22;6803;45.264;5.468;2022-11-04T09:12:51;9.70;99.90
13462;DHT22;6803;45.264;5.468;2022-11-04T09:15:22;9.70;99.90
13462;DHT22;6803;45.264;5.468;2022-11-04T09:17:53;9.70;99.90
13462;DHT22;6803;45.264;5.468;2022-11-04T09:20:23;9.60;99.90
13462;DHT22;6803;45.264;5.468;2022-11-04T09:22:56;9.60;99.90
13462;DHT22;6803;45.264;5.468;2022-11-04T09:25:27;9.60;99.90
13462;DHT22;6803;45.264;5.468;2022-11-04T09:27:59;9.60;99.90
13462;DHT22;6803;45.264;5.468;2022-11-04T09:30:30;9.40;99.90
13462;DHT22;6803;45.264;5.468;2022-11-04T09:33:01;9.40;99.90
13462;DHT22;6803;45.264;5.468;2022-11-04T09:35:32;9.50;99.90
13462;DHT22;6803;45.264;5.468;2022-11-04T09:38:02;9.40;99.90
13462;DHT22;6803;45.264;5.468;2022-11-04T09:40:35;9.50;99.90
13462;DHT22;6803;45.264;5.468;2022-11-04T09:45:51;9.50;99.90
13462;DHT22;6803;45.264;5.468;2022-11-04T09:48:25;9.60;99.90
13462;DHT22;6803;45.264;5.468;2022-11-04T09:50:58;9.70;99.90
13462;DHT22;6803;45.264;5.468;2022-11-04T09:56:16;9.60;99.90
13462;DHT22;6803;45.264;5.468;2022-11-04T09:58:48;9.60;99.90
13462;DHT22;6803;45.264;5.468;2022-11-04T10:01:25;9.60;99.90
13462;DHT22;6803;45.264;5.468;2022-11-04T10:06:53;9.70;99.90
13462;DHT22;6803;45.264;5.468;2022-11-04T10:09:32;9.80;99.90
13462;DHT22;6803;45.264;5.468;2022-11-04T10:12:10;9.80;99.90
13462;DHT22;6803;45.264;5.468;2022-11-04T10:14:54;9.80;99.90
13462;DHT22;6803;45.264;5.468;2022-11-04T10:17:33;9.90;99.90
13462;DHT22;6803;45.264;5.468;2022-11-04T10:20:12;9.80;99.90
13462;DHT22;6803;45.264;5.468;2022-11-04T10:22:47;9.80;99.90
13462;DHT22;6803;45.264;5.468;2022-11-04T10:25:20;9.90;99.90
13462;DHT22;6803;45.264;5.468;2022-11-04T10:27:52;9.90;99.90
13462;DHT22;6803;45.264;5.468;2022-11-04T10:30:24;9.90;99.90
13462;DHT22;6803;45.264;5.468;2022-11-04T10:33:03;9.80;99.90
13462;DHT22;6803;45.264;5.468;2022-11-04T10:35:38;9.70;99.90
13462;DHT22;6803;45.264;5.468;2022-11-04T10:38:18;9.70;99.90
13462;DHT22;6803;45.264;5.468;2022-11-04T10:40:51;9.60;99.90
13462;DHT22;6803;45.264;5.468;2022-11-04T10:43:26;9.70;99.90
13462;DHT22;6803;45.264;5.468;2022-11-04T10:46:07;9.70;99.90
13462;DHT22;6803;45.264;5.468;2022-11-04T10:48:41;9.70;99.90
13462;DHT22;6803;45.264;5.468;2022-11-04T10:51:12;9.70;99.90
13462;DHT22;6803;45.264;5.468;2022-11-04T10:53:45;9.70;99.90
13462;DHT22;6803;45.264;5.468;2022-11-04T10:56:21;9.70;99.90
13462;DHT22;6803;45.264;5.468;2022-11-04T10:58:53;9.70;99.90
13462;DHT22;6803;45.264;5.468;2022-11-04T11:01:28;9.70;99.90
13462;DHT22;6803;45.264;5.468;2022-11-04T11:04:00;9.80;99.90
13462;DHT22;6803;45.264;5.468;2022-11-04T11:06:33;9.60;99.90
13462;DHT22;6803;45.264;5.468;2022-11-04T11:09:17;9.70;99.90
13462;DHT22;6803;45.264;5.468;2022-11-04T11:11:47;9.60;99.90
13462;DHT22;6803;45.264;5.468;2022-11-04T11:14:30;9.70;99.90
13462;DHT22;6803;45.264;5.468;2022-11-04T11:16:56;9.80;99.90
13462;DHT22;6803;45.264;5.468;2022-11-04T11:19:27;9.90;99.90
13462;DHT22;6803;45.264;5.468;2022-11-04T11:22:00;10.00;99.90
13462;DHT22;6803;45.264;5.468;2022-11-04T11:24:30;10.20;99.90
13462;DHT22;6803;45.264;5.468;2022-11-04T11:27:08;10.20;99.90
13462;DHT22;6803;45.264;5.468;2022-11-04T11:32:32;10.40;99.90
13462;DHT22;6803;45.264;5.468;2022-11-04T11:34:53;10.50;99.90
13462;DHT22;6803;45.264;5.468;2022-11-04T11:37:26;10.60;99.90
13462;DHT22;6803;45.264;5.468;2022-11-04T11:39:59;10.60;99.90
13462;DHT22;6803;45.264;5.468;2022-11-04T11:42:30;10.50;99.90
13462;DHT22;6803;45.264;5.468;2022-11-04T11:45:03;10.60;99.90
13462;DHT22;6803;45.264;5.468;2022-11-04T11:47:37;10.70;99.90
13462;DHT22;6803;45.264;5.468;2022-11-04T11:50:16;10.70;99.90
13462;DHT22;6803;45.264;5.468;2022-11-04T11:52:48;10.70;99.90
13462;DHT22;6803;45.264;5.468;2022-11-04T11:55:21;10.70;99.90
13462;DHT22;6803;45.264;5.468;2022-11-04T11:57:57;10.70;99.90
13462;DHT22;6803;45.264;5.468;2022-11-04T12:00:31;10.80;99.90
13462;DHT22;6803;45.264;5.468;2022-11-04T12:03:11;10.90;99.90
13462;DHT22;6803;45.264;5.468;2022-11-04T12:05:49;11.00;99.90
13462;DHT22;6803;45.264;5.468;2022-11-04T12:08:36;11.00;99.90
13462;DHT22;6803;45.264;5.468;2022-11-04T12:11:12;11.00;99.90
13462;DHT22;6803;45.264;5.468;2022-11-04T12:13:45;11.10;99.90
13462;DHT22;6803;45.264;5.468;2022-11-04T12:16:27;11.30;99.90
13462;DHT22;6803;45.264;5.468;2022-11-04T12:19:12;11.60;99.90
13462;DHT22;6803;45.264;5.468;2022-11-04T12:21:45;11.70;99.90
13462;DHT22;6803;45.264;5.468;2022-11-04T12:24:23;11.80;99.90
13462;DHT22;6803;45.264;5.468;2022-11-04T12:26:59;11.80;99.90
13462;DHT22;6803;45.264;5.468;2022-11-04T12:29:39;11.80;99.90
13462;DHT22;6803;45.264;5.468;2022-11-04T12:32:21;11.90;99.90
13462;DHT22;6803;45.264;5.468;2022-11-04T12:35:03;12.10;99.90
13462;DHT22;6803;45.264;5.468;2022-11-04T12:37:37;12.20;99.90
13462;DHT22;6803;45.264;5.468;2022-11-04T12:40:16;12.20;99.90
13462;DHT22;6803;45.264;5.468;2022-11-04T12:43:07;12.10;99.90
13462;DHT22;6803;45.264;5.468;2022-11-04T12:48:38;11.80;99.90
13462;DHT22;6803;45.264;5.468;2022-11-04T12:51:12;11.80;99.90
13462;DHT22;6803;45.264;5.468;2022-11-04T12:53:58;11.80;99.90
13462;DHT22;6803;45.264;5.468;2022-11-04T12:59:28;11.50;99.90
13462;DHT22;6803;45.264;5.468;2022-11-04T13:02:01;11.50;99.90
13462;DHT22;6803;45.264;5.468;2022-11-04T13:04:36;11.40;99.90
13462;DHT22;6803;45.264;5.468;2022-11-04T13:07:11;11.40;99.90
13462;DHT22;6803;45.264;5.468;2022-11-04T13:09:44;11.40;99.90
13462;DHT22;6803;45.264;5.468;2022-11-04T13:12:18;11.50;99.90
13462;DHT22;6803;45.264;5.468;2022-11-04T13:14:52;11.60;99.90
13462;DHT22;6803;45.264;5.468;2022-11-04T13:17:25;11.80;99.90
13462;DHT22;6803;45.264;5.468;2022-11-04T13:20:00;12.00;99.90
13462;DHT22;6803;45.264;5.468;2022-11-04T13:22:34;12.00;99.90
13462;DHT22;6803;45.264;5.468;2022-11-04T13:25:11;12.00;99.90
13462;DHT22;6803;45.264;5.468;2022-11-04T13:30:26;12.30;99.90
13462;DHT22;6803;45.264;5.468;2022-11-04T13:32:57;12.40;99.90
13462;DHT22;6803;45.264;5.468;2022-11-04T13:35:32;12.20;99.90
13462;DHT22;6803;45.264;5.468;2022-11-04T13:38:05;12.40;99.90
13462;DHT22;6803;45.264;5.468;2022-11-04T13:40:44;12.50;99.90
13462;DHT22;6803;45.264;5.468;2022-11-04T13:43:23;12.30;99.90
13462;DHT22;6803;45.264;5.468;2022-11-04T13:46:19;12.10;99.90
13462;DHT22;6803;45.264;5.468;2022-11-04T13:48:57;11.60;99.90
13462;DHT22;6803;45.264;5.468;2022-11-04T13:51:42;11.30;99.90
13462;DHT22;6803;45.264;5.468;2022-11-04T14:00:17;11.00;99.90
13462;DHT22;6803;45.264;5.468;2022-11-04T14:02:48;10.80;99.90
13462;DHT22;6803;45.264;5.468;2022-11-04T14:08:19;10.30;99.90
13462;DHT22;6803;45.264;5.468;2022-11-04T14:11:06;10.10;99.90
13462;DHT22;6803;45.264;5.468;2022-11-04T14:16:44;10.00;99.90
13462;DHT22;6803;45.264;5.468;2022-11-04T14:25:38;10.10;99.90
13462;DHT22;6803;45.264;5.468;2022-11-04T14:28:25;10.20;99.90
13462;DHT22;6803;45.264;5.468;2022-11-04T14:30:57;10.20;99.90
13462;DHT22;6803;45.264;5.468;2022-11-04T14:33:54;10.20;99.90
13462;DHT22;6803;45.264;5.468;2022-11-04T14:36:36;10.10;99.90
13462;DHT22;6803;45.264;5.468;2022-11-04T14:39:20;9.90;99.90
13462;DHT22;6803;45.264;5.468;2022-11-04T14:41:57;9.90;99.90
13462;DHT22;6803;45.264;5.468;2022-11-04T14:44:34;9.80;99.90
13462;DHT22;6803;45.264;5.468;2022-11-04T14:47:17;9.80;99.90
13462;DHT22;6803;45.264;5.468;2022-11-04T14:49:50;9.70;99.90
13462;DHT22;6803;45.264;5.468;2022-11-04T14:52:25;9.60;99.90
13462;DHT22;6803;45.264;5.468;2022-11-04T14:55:01;9.50;99.90
13462;DHT22;6803;45.264;5.468;2022-11-04T14:57:48;9.60;99.90
13462;DHT22;6803;45.264;5.468;2022-11-04T15:03:14;9.60;99.90
13462;DHT22;6803;45.264;5.468;2022-11-04T15:05:49;9.60;99.90
13462;DHT22;6803;45.264;5.468;2022-11-04T15:08:28;9.60;99.90
13462;DHT22;6803;45.264;5.468;2022-11-04T15:11:01;9.50;99.90
13462;DHT22;6803;45.264;5.468;2022-11-04T15:13:37;9.40;99.90
13462;DHT22;6803;45.264;5.468;2022-11-04T15:16:12;9.40;99.90
13462;DHT22;6803;45.264;5.468;2022-11-04T15:18:42;9.30;99.90
13462;DHT22;6803;45.264;5.468;2022-11-04T15:21:14;9.30;99.90
13462;DHT22;6803;45.264;5.468;2022-11-04T15:23:46;9.20;99.90
13462;DHT22;6803;45.264;5.468;2022-11-04T15:26:22;9.30;99.90
13462;DHT22;6803;45.264;5.468;2022-11-04T15:28:57;9.20;99.90
13462;DHT22;6803;45.264;5.468;2022-11-04T15:31:29;9.10;99.90
13462;DHT22;6803;45.264;5.468;2022-11-04T15:34:03;9.10;99.90
13462;DHT22;6803;45.264;5.468;2022-11-04T15:36:38;9.00;99.90
13462;DHT22;6803;45.264;5.468;2022-11-04T15:39:11;8.90;99.90
13462;DHT22;6803;45.264;5.468;2022-11-04T15:44:30;8.90;99.90
13462;DHT22;6803;45.264;5.468;2022-11-04T15:47:03;8.90;99.90
13462;DHT22;6803;45.264;5.468;2022-11-04T15:49:35;8.80;99.90
13462;DHT22;6803;45.264;5.468;2022-11-04T15:52:07;8.70;99.90
13462;DHT22;6803;45.264;5.468;2022-11-04T15:54:39;8.80;99.90
13462;DHT22;6803;45.264;5.468;2022-11-04T15:57:15;8.70;99.90
13462;DHT22;6803;45.264;5.468;2022-11-04T15:59:49;8.80;99.90
13462;DHT22;6803;45.264;5.468;2022-11-04T16:02:24;8.90;99.90
13462;DHT22;6803;45.264;5.468;2022-11-04T16:05:07;8.80;99.90
13462;DHT22;6803;45.264;5.468;2022-11-04T16:07:39;8.70;99.90
13462;DHT22;6803;45.264;5.468;2022-11-04T16:10:26;8.70;99.90
13462;DHT22;6803;45.264;5.468;2022-11-04T16:13:00;8.50;99.90
13462;DHT22;6803;45.264;5.468;2022-11-04T16:15:33;8.50;99.90
13462;DHT22;6803;45.264;5.468;2022-11-04T16:18:16;8.50;99.90
13462;DHT22;6803;45.264;5.468;2022-11-04T16:20:43;8.40;99.90
13462;DHT22;6803;45.264;5.468;2022-11-04T16:23:15;8.40;99.90
13462;DHT22;6803;45.264;5.468;2022-11-04T16:25:53;8.40;99.90
13462;DHT22;6803;45.264;5.468;2022-11-04T16:28:20;8.40;99.90
13462;DHT22;6803;45.264;5.468;2022-11-04T16:30:59;8.30;99.90
13462;DHT22;6803;45.264;5.468;2022-11-04T16:33:30;8.20;99.90
13462;DHT22;6803;45.264;5.468;2022-11-04T16:36:00;8.10;99.90
13462;DHT22;6803;45.264;5.468;2022-11-04T16:38:32;8.10;99.90
13462;DHT22;6803;45.264;5.468;2022-11-04T16:41:03;8.00;99.90
13462;DHT22;6803;45.264;5.468;2022-11-04T16:43:34;8.00;99.90
13462;DHT22;6803;45.264;5.468;2022-11-04T16:46:07;7.90;99.90
13462;DHT22;6803;45.264;5.468;2022-11-04T16:48:38;7.90;99.90
13462;DHT22;6803;45.264;5.468;2022-11-04T16:53:53;8.00;99.90
13462;DHT22;6803;45.264;5.468;2022-11-04T16:56:25;8.00;99.90
13462;DHT22;6803;45.264;5.468;2022-11-04T16:58:56;8.00;99.90
13462;DHT22;6803;45.264;5.468;2022-11-04T17:01:26;8.00;99.90
13462;DHT22;6803;45.264;5.468;2022-11-04T17:03:57;8.00;99.90
13462;DHT22;6803;45.264;5.468;2022-11-04T17:06:28;8.00;99.90
13462;DHT22;6803;45.264;5.468;2022-11-04T17:08:58;8.10;99.90
13462;DHT22;6803;45.264;5.468;2022-11-04T17:11:29;8.10;99.90
13462;DHT22;6803;45.264;5.468;2022-11-04T17:14:00;8.10;99.90
13462;DHT22;6803;45.264;5.468;2022-11-04T17:16:31;8.10;99.90
13462;DHT22;6803;45.264;5.468;2022-11-04T17:19:02;8.10;99.90
13462;DHT22;6803;45.264;5.468;2022-11-04T17:21:32;8.20;99.90
13462;DHT22;6803;45.264;5.468;2022-11-04T17:24:04;8.20;99.90
13462;DHT22;6803;45.264;5.468;2022-11-04T17:26:34;8.20;99.90
13462;DHT22;6803;45.264;5.468;2022-11-04T17:29:05;8.00;99.90
13462;DHT22;6803;45.264;5.468;2022-11-04T17:31:38;8.10;99.90
13462;DHT22;6803;45.264;5.468;2022-11-04T17:34:09;8.10;99.90
13462;DHT22;6803;45.264;5.468;2022-11-04T17:36:40;8.00;99.90
13462;DHT22;6803;45.264;5.468;2022-11-04T17:39:11;8.00;99.90
13462;DHT22;6803;45.264;5.468;2022-11-04T17:41:41;7.90;99.90